This is the latest recevied weather packets stored in our database for station/object WR7DW-3. If no packets are shown the sender has not sent any weather packets the latest 10 day(s).
| Time | Temp. | Humidity | Pressure | Rain* | Wind** | Luminosity | Snow |
|---|---|---|---|---|---|---|---|
| 1777949980 | 0° C | 73% | 1007.2 hPa | 0 mm | - | - | - |
| 1777949080 | 0.56° C | 72% | 1007 hPa | 0 mm | - | - | - |
| 1777948180 | 1.11° C | 70% | 1007 hPa | 0 mm | - | - | - |
| 1777947280 | 1.11° C | 70% | 1007 hPa | 0 mm | - | - | - |
| 1777946381 | 2.22° C | 68% | 1006.7 hPa | 0 mm | - | - | - |
| 1777945481 | 2.22° C | 67% | 1006.7 hPa | 0 mm | - | - | - |
| 1777944581 | 2.78° C | 66% | 1006.7 hPa | 0 mm | - | - | - |
| 1777942781 | 3.89° C | 65% | 1006.5 hPa | 0 mm | - | - | - |
| 1777941881 | 3.33° C | 66% | 1006.6 hPa | 0 mm | - | - | - |
| 1777940983 | 3.89° C | 66% | 1006.4 hPa | 0 mm | - | - | - |
| 1777940081 | 2.78° C | 68% | 1006.4 hPa | 0 mm | - | - | - |
| 1777939181 | 2.78° C | 68% | 1006.5 hPa | 0 mm | - | - | - |
| 1777938281 | 3.33° C | 66% | 1006.3 hPa | 0 mm | - | - | - |
| 1777937383 | 3.33° C | 67% | 1006.5 hPa | 0 mm | - | - | - |
| 1777936481 | 2.78° C | 68% | 1006.3 hPa | 0 mm | - | - | - |
| 1777935581 | 2.78° C | 66% | 1006 hPa | 0 mm | - | - | - |
| 1777934681 | 2.78° C | 67% | 1006 hPa | 0 mm | - | - | - |
| 1777933781 | 3.33° C | 67% | 1005.7 hPa | 0 mm | - | - | - |
| 1777932881 | 3.89° C | 67% | 1005.5 hPa | 0 mm | - | - | - |
| 1777931981 | 3.89° C | 66% | 1005.7 hPa | 0 mm | - | - | - |
| 1777931081 | 4.44° C | 65% | 1005.6 hPa | 0 mm | - | - | - |
| 1777930181 | 4.44° C | 65% | 1005.3 hPa | 0 mm | - | - | - |
| 1777929281 | 5° C | 63% | 1005.6 hPa | 0 mm | - | - | - |
| 1777928381 | 5.56° C | 60% | 1005.4 hPa | 0 mm | - | - | - |
| 1777927481 | 5° C | 64% | 1005.6 hPa | 0 mm | - | - | - |
* Rain latest hour (hover to see other rain measurements)
** Current wind speed in m/s (hover to see current wind gust speed)